createdAt,value
2023-04-22T00:00:54.937Z,100569.06
2023-04-22T00:03:24.951Z,100572.47
2023-04-22T00:05:51.775Z,100567.78
2023-04-22T00:08:18.412Z,100570.63
2023-04-22T00:10:45.055Z,100560.59
2023-04-22T00:13:11.656Z,100554.91
2023-04-22T00:15:38.562Z,100551.25
2023-04-22T00:18:04.999Z,100550.16
2023-04-22T00:20:32.870Z,100538.38
2023-04-22T00:22:59.286Z,100539.63
2023-04-22T00:25:26.018Z,100539.03
2023-04-22T00:27:52.575Z,100543.38
2023-04-22T00:30:19.111Z,100550.47
2023-04-22T00:32:45.942Z,100551.09
2023-04-22T00:35:12.734Z,100547.22
2023-04-22T00:37:39.698Z,100546.75
2023-04-22T00:40:07.021Z,100540.03
2023-04-22T00:42:33.741Z,100541.63
2023-04-22T00:45:01.362Z,100535.44
2023-04-22T00:47:28.597Z,100532.47
2023-04-22T00:49:55.089Z,100521.63
2023-04-22T00:52:22.212Z,100520.72
2023-04-22T00:54:49.611Z,100520.78
2023-04-22T00:57:17.020Z,100521.06
2023-04-22T00:59:44.583Z,100526.63
2023-04-22T01:02:11.642Z,100517.59
2023-04-22T01:04:38.735Z,100518.75
2023-04-22T01:07:05.329Z,100522.53
2023-04-22T01:09:31.844Z,100527.75
2023-04-22T01:11:58.312Z,100526.25
2023-04-22T01:14:25.249Z,100530.47
2023-04-22T01:16:53.991Z,100531.06
2023-04-22T01:19:20.737Z,100530.91
2023-04-22T01:21:50.916Z,100530.00
2023-04-22T01:24:17.628Z,100528.66
2023-04-22T01:26:44.402Z,100530.56
2023-04-22T01:29:10.866Z,100527.13
2023-04-22T01:31:38.089Z,100525.28
2023-04-22T01:34:05.372Z,100528.81
2023-04-22T01:36:33.753Z,100527.00
2023-04-22T01:39:00.707Z,100521.56
2023-04-22T01:41:27.367Z,100518.34
2023-04-22T01:43:54.603Z,100523.59
2023-04-22T01:46:21.060Z,100522.31
2023-04-22T01:48:51.355Z,100520.69
2023-04-22T01:51:20.938Z,100520.47
2023-04-22T01:53:48.704Z,100518.75
2023-04-22T01:56:15.799Z,100513.78
2023-04-22T01:58:42.727Z,100512.56
2023-04-22T02:01:12.389Z,100514.81
2023-04-22T02:03:39.302Z,100504.53
2023-04-22T02:06:06.218Z,100507.63
2023-04-22T02:08:32.693Z,100503.16
2023-04-22T02:11:00.832Z,100499.28
2023-04-22T02:13:35.429Z,100505.84
2023-04-22T02:16:02.063Z,100503.59
2023-04-22T02:18:28.447Z,100501.53
2023-04-22T02:20:54.921Z,100502.31
2023-04-22T02:23:21.738Z,100500.38
2023-04-22T02:25:52.385Z,100507.72
2023-04-22T02:28:19.436Z,100506.97
2023-04-22T02:30:46.687Z,100508.84
2023-04-22T02:33:14.377Z,100506.44
2023-04-22T02:35:40.865Z,100502.97
2023-04-22T02:38:07.303Z,100501.88
2023-04-22T02:40:33.710Z,100490.00
2023-04-22T02:43:00.364Z,100494.63
2023-04-22T02:45:28.477Z,100493.81
2023-04-22T02:47:55.509Z,100491.91
2023-04-22T02:50:22.123Z,100491.09
2023-04-22T02:52:48.573Z,100494.22
2023-04-22T02:55:15.614Z,100486.09
2023-04-22T02:57:42.060Z,100485.56
2023-04-22T03:00:09.030Z,100480.06
2023-04-22T03:02:36.195Z,100481.16
2023-04-22T03:05:08.484Z,100470.53
2023-04-22T03:07:35.516Z,100480.13
2023-04-22T03:10:02.936Z,100475.78
2023-04-22T03:12:29.376Z,100465.19
2023-04-22T03:14:56.582Z,100471.94
2023-04-22T03:17:27.974Z,100472.28
2023-04-22T03:19:54.865Z,100468.44
2023-04-22T03:22:21.899Z,100464.09
2023-04-22T03:24:50.577Z,100460.03
2023-04-22T03:27:17.195Z,100463.34
2023-04-22T03:29:43.624Z,100462.78
2023-04-22T03:32:10.945Z,100456.59
2023-04-22T03:34:37.880Z,100463.06
2023-04-22T03:37:06.998Z,100464.47
2023-04-22T03:39:33.502Z,100462.78
2023-04-22T03:42:00.057Z,100464.19
2023-04-22T03:44:26.544Z,100466.41
2023-04-22T03:46:54.963Z,100471.28
2023-04-22T03:49:26.171Z,100473.13
2023-04-22T03:51:54.887Z,100472.13
2023-04-22T03:54:24.326Z,100469.41
2023-04-22T03:56:52.410Z,100471.25
2023-04-22T03:59:21.082Z,100465.06
2023-04-22T04:01:50.832Z,100462.06
2023-04-22T04:04:20.695Z,100463.75
2023-04-22T04:06:52.462Z,100459.66
2023-04-22T04:09:19.594Z,100444.47
2023-04-22T04:11:46.565Z,100445.84
2023-04-22T04:14:13.353Z,100448.59
2023-04-22T04:16:46.306Z,100440.72
2023-04-22T04:19:33.806Z,100437.47
2023-04-22T04:22:02.161Z,100433.97
2023-04-22T04:24:33.457Z,100439.38
2023-04-22T04:27:05.633Z,100442.66
2023-04-22T04:29:41.399Z,100447.81
2023-04-22T04:32:14.144Z,100450.78
2023-04-22T04:34:42.517Z,100448.59
2023-04-22T04:37:09.626Z,100446.69
2023-04-22T04:39:48.445Z,100452.06
2023-04-22T04:42:16.360Z,100452.63
2023-04-22T04:44:52.007Z,100454.22
2023-04-22T04:47:20.306Z,100438.16
2023-04-22T04:49:47.380Z,100438.94
2023-04-22T04:52:14.281Z,100437.84
2023-04-22T04:54:41.356Z,100437.59
2023-04-22T04:57:10.052Z,100445.44
2023-04-22T04:59:37.916Z,100436.72
2023-04-22T05:02:05.750Z,100446.16
2023-04-22T05:04:33.152Z,100447.81
2023-04-22T05:07:00.034Z,100452.13
2023-04-22T05:09:28.996Z,100441.41
2023-04-22T05:11:55.816Z,100452.88
2023-04-22T05:14:22.762Z,100441.44
2023-04-22T05:16:49.300Z,100443.03
2023-04-22T05:19:15.971Z,100438.66
2023-04-22T05:21:43.270Z,100438.63
2023-04-22T05:24:09.770Z,100439.94
2023-04-22T05:26:36.520Z,100442.66
2023-04-22T05:29:09.276Z,100432.69
2023-04-22T05:31:35.869Z,100441.69
2023-04-22T05:34:02.323Z,100437.97
2023-04-22T05:36:31.416Z,100440.88
2023-04-22T05:38:58.872Z,100442.56
2023-04-22T05:41:26.160Z,100444.72
2023-04-22T05:43:54.613Z,100439.59
2023-04-22T05:46:21.153Z,100439.53
2023-04-22T05:48:49.098Z,100441.13
2023-04-22T05:51:34.007Z,100443.22
2023-04-22T05:54:00.833Z,100447.63
2023-04-22T05:56:27.627Z,100437.22
2023-04-22T05:58:54.073Z,100431.13
2023-04-22T06:01:24.849Z,100428.56
2023-04-22T06:04:06.117Z,100430.31
2023-04-22T06:06:33.501Z,100429.06
2023-04-22T06:08:59.926Z,100437.09
2023-04-22T06:11:26.469Z,100432.06
2023-04-22T06:13:53.165Z,100433.84
2023-04-22T06:16:19.871Z,100428.38
2023-04-22T06:18:46.753Z,100432.44
2023-04-22T06:21:14.009Z,100428.41
2023-04-22T06:23:40.509Z,100429.22
2023-04-22T06:26:06.970Z,100427.16
2023-04-22T06:28:35.234Z,100427.59
2023-04-22T06:31:05.948Z,100422.19
2023-04-22T06:33:32.441Z,100423.81
2023-04-22T06:35:59.109Z,100418.22
2023-04-22T06:38:26.096Z,100415.09
2023-04-22T06:41:22.451Z,100421.34
2023-04-22T06:43:51.121Z,100420.50
2023-04-22T06:46:17.677Z,100417.69
2023-04-22T06:49:03.039Z,100423.47
2023-04-22T06:52:03.583Z,100423.53
2023-04-22T06:54:31.847Z,100424.22
2023-04-22T06:56:58.345Z,100431.31
2023-04-22T06:59:24.971Z,100422.06
2023-04-22T07:01:51.505Z,100434.06
2023-04-22T07:04:18.052Z,100431.09
2023-04-22T07:06:44.634Z,100427.06
2023-04-22T07:09:12.515Z,100430.31
2023-04-22T07:11:39.048Z,100428.94
2023-04-22T07:14:18.573Z,100424.63
2023-04-22T07:16:45.502Z,100416.38
2023-04-22T07:19:12.415Z,100419.44
2023-04-22T07:21:38.825Z,100410.41
2023-04-22T07:24:05.511Z,100413.50
2023-04-22T07:26:34.242Z,100417.56
2023-04-22T07:29:00.672Z,100407.41
2023-04-22T07:31:27.235Z,100421.16
2023-04-22T07:33:53.689Z,100423.13
2023-04-22T07:36:20.725Z,100420.75
2023-04-22T07:38:47.623Z,100421.78
2023-04-22T07:41:14.095Z,100420.50
2023-04-22T07:43:40.485Z,100419.44
2023-04-22T07:46:07.246Z,100418.69
2023-04-22T07:48:33.632Z,100417.75
2023-04-22T07:51:00.030Z,100411.63
2023-04-22T07:53:27.404Z,100415.84
2023-04-22T07:55:54.980Z,100414.25
2023-04-22T07:58:21.614Z,100413.09
2023-04-22T08:00:48.023Z,100415.84
2023-04-22T08:03:14.691Z,100415.50
2023-04-22T08:05:41.264Z,100412.75
2023-04-22T08:08:08.184Z,100410.66
2023-04-22T08:10:34.632Z,100410.31
2023-04-22T08:13:03.201Z,100409.81
2023-04-22T08:15:30.062Z,100400.56
2023-04-22T08:17:56.604Z,100407.41
2023-04-22T08:20:23.692Z,100409.03
2023-04-22T08:22:51.457Z,100402.56
2023-04-22T08:25:17.940Z,100404.22
2023-04-22T08:27:44.431Z,100408.75
2023-04-22T08:30:11.051Z,100407.88
2023-04-22T08:32:37.779Z,100413.66
2023-04-22T08:35:05.448Z,100414.84
2023-04-22T08:37:32.317Z,100418.75
2023-04-22T08:39:58.736Z,100416.28
2023-04-22T08:42:26.735Z,100411.19
2023-04-22T08:44:54.896Z,100416.59
2023-04-22T08:47:21.768Z,100408.00
2023-04-22T08:49:51.384Z,100404.78
2023-04-22T08:52:18.470Z,100405.69
2023-04-22T08:54:44.861Z,100411.31
2023-04-22T08:57:12.283Z,100408.81
2023-04-22T08:59:39.101Z,100399.66
2023-04-22T09:02:07.627Z,100395.28
2023-04-22T09:04:34.455Z,100394.13
2023-04-22T09:07:02.040Z,100391.38
2023-04-22T09:09:30.695Z,100398.81
2023-04-22T09:11:57.889Z,100386.22
2023-04-22T09:14:25.383Z,100388.38
2023-04-22T09:16:52.059Z,100385.75
2023-04-22T09:19:19.224Z,100386.19
2023-04-22T09:21:49.091Z,100378.28
2023-04-22T09:24:16.541Z,100372.72
2023-04-22T09:26:42.928Z,100387.13
2023-04-22T09:29:14.249Z,100382.63
2023-04-22T09:31:41.362Z,100370.63
2023-04-22T09:34:08.613Z,100367.59
2023-04-22T09:36:37.371Z,100370.75
2023-04-22T09:39:09.285Z,100367.44
2023-04-22T09:41:40.311Z,100366.97
2023-04-22T09:44:15.519Z,100366.81
2023-04-22T09:46:43.806Z,100358.63
2023-04-22T09:49:10.999Z,100355.16
2023-04-22T09:51:40.963Z,100354.75
2023-04-22T09:54:08.861Z,100351.38
2023-04-22T09:56:50.834Z,100353.41
2023-04-22T09:59:22.258Z,100348.56
2023-04-22T10:01:51.066Z,100351.03
2023-04-22T10:04:21.282Z,100350.41
2023-04-22T10:06:48.608Z,100350.63
2023-04-22T10:09:25.133Z,100345.09
2023-04-22T10:11:54.096Z,100338.28
2023-04-22T10:14:25.314Z,100331.91
2023-04-22T10:16:58.960Z,100329.78
2023-04-22T10:19:26.838Z,100328.72
2023-04-22T10:21:56.370Z,100331.25
2023-04-22T10:24:26.721Z,100325.78
2023-04-22T10:26:58.571Z,100321.81
2023-04-22T10:29:42.632Z,100315.63
2023-04-22T10:32:25.355Z,100321.16
2023-04-22T10:35:08.445Z,100323.25
2023-04-22T10:37:35.742Z,100315.81
2023-04-22T10:40:16.516Z,100316.91
2023-04-22T10:42:49.486Z,100314.19
2023-04-22T10:45:16.226Z,100311.81
2023-04-22T10:47:43.627Z,100310.31
2023-04-22T10:50:24.007Z,100301.03
2023-04-22T10:52:58.735Z,100304.97
2023-04-22T10:55:44.631Z,100301.16
2023-04-22T10:58:21.649Z,100304.50
2023-04-22T11:00:54.193Z,100295.94
2023-04-22T11:03:27.112Z,100289.56
2023-04-22T11:06:16.841Z,100289.47
2023-04-22T11:08:47.808Z,100277.59
2023-04-22T11:11:18.700Z,100276.03
2023-04-22T11:13:47.769Z,100278.06
2023-04-22T11:16:14.260Z,100270.94
2023-04-22T11:18:41.077Z,100268.50
2023-04-22T11:21:08.692Z,100265.81
2023-04-22T11:23:36.570Z,100256.72
2023-04-22T11:26:05.647Z,100256.97
2023-04-22T11:28:32.453Z,100253.44
2023-04-22T11:31:11.735Z,100250.84
2023-04-22T11:33:39.117Z,100248.22
2023-04-22T11:36:09.806Z,100236.47
2023-04-22T11:38:36.651Z,100224.78
2023-04-22T11:41:04.887Z,100242.16
2023-04-22T11:43:31.480Z,100243.47
2023-04-22T11:45:58.191Z,100244.03
2023-04-22T11:48:24.845Z,100236.81
2023-04-22T11:51:08.767Z,100239.28
2023-04-22T11:53:35.285Z,100230.78
2023-04-22T11:56:03.880Z,100240.59
2023-04-22T11:58:30.571Z,100228.63
2023-04-22T12:00:59.139Z,100225.03
2023-04-22T12:03:28.223Z,100229.00
2023-04-22T12:06:00.316Z,100216.81
2023-04-22T12:08:47.227Z,100214.06
2023-04-22T12:11:13.684Z,100215.28
2023-04-22T12:13:42.963Z,100215.09
2023-04-22T12:16:15.704Z,100218.63
2023-04-22T12:18:51.333Z,100211.06
2023-04-22T12:21:24.167Z,100202.16
2023-04-22T12:23:55.492Z,100197.81
2023-04-22T12:26:26.531Z,100211.28
2023-04-22T12:28:54.877Z,100202.97
2023-04-22T12:31:21.680Z,100199.84
2023-04-22T12:33:48.309Z,100190.00
2023-04-22T12:36:15.360Z,100196.16
2023-04-22T12:38:41.861Z,100197.06
2023-04-22T12:41:08.500Z,100191.47
2023-04-22T12:43:39.268Z,100196.13
2023-04-22T12:46:07.515Z,100181.22
2023-04-22T12:48:35.919Z,100184.03
2023-04-22T12:51:03.065Z,100183.97
2023-04-22T12:53:29.504Z,100182.25
2023-04-22T12:55:56.429Z,100173.34
2023-04-22T12:58:23.393Z,100181.63
2023-04-22T13:00:49.932Z,100179.78
2023-04-22T13:03:16.702Z,100163.91
2023-04-22T13:05:45.337Z,100159.63
2023-04-22T13:08:11.815Z,100163.75
2023-04-22T13:10:38.315Z,100164.88
2023-04-22T13:15:34.573Z,100160.72
2023-04-22T13:18:02.402Z,100148.16
2023-04-22T13:20:28.932Z,100148.50
2023-04-22T13:22:55.971Z,100151.69
2023-04-22T13:25:22.634Z,100157.00
2023-04-22T13:27:49.072Z,100146.69
2023-04-22T13:30:15.715Z,100149.25
2023-04-22T13:32:42.173Z,100152.25
2023-04-22T13:35:09.366Z,100151.50
2023-04-22T13:37:36.753Z,100151.63
2023-04-22T13:40:05.682Z,100147.50
2023-04-22T13:42:32.179Z,100150.94
2023-04-22T13:44:58.593Z,100144.28
2023-04-22T13:47:25.097Z,100145.41
2023-04-22T13:49:51.644Z,100136.94
2023-04-22T13:52:18.035Z,100122.34
2023-04-22T13:54:44.746Z,100125.38
2023-04-22T13:57:11.156Z,100115.91
2023-04-22T13:59:37.714Z,100111.25
2023-04-22T14:02:04.291Z,100114.00
2023-04-22T14:04:30.713Z,100112.81
2023-04-22T14:06:57.112Z,100122.31
2023-04-22T14:09:23.789Z,100105.97
2023-04-22T14:11:50.289Z,100105.59
2023-04-22T14:14:16.773Z,100103.81
2023-04-22T14:16:43.382Z,100096.97
2023-04-22T14:19:10.150Z,100101.22
2023-04-22T14:21:36.615Z,100096.53
2023-04-22T14:24:03.025Z,100094.84
2023-04-22T14:26:29.641Z,100100.56
2023-04-22T14:28:56.058Z,100093.13
2023-04-22T14:31:24.598Z,100084.75
2023-04-22T14:33:51.706Z,100082.81
2023-04-22T14:36:18.572Z,100084.03
2023-04-22T14:38:45.046Z,100079.84
2023-04-22T14:41:12.380Z,100076.00
2023-04-22T14:43:39.004Z,100082.66
2023-04-22T14:46:05.565Z,100079.25
2023-04-22T14:48:35.220Z,100072.78
2023-04-22T14:51:02.673Z,100071.56
2023-04-22T14:53:29.202Z,100069.28
2023-04-22T14:55:56.453Z,100064.94
2023-04-22T14:58:23.821Z,100065.50
2023-04-22T15:00:50.464Z,100065.91
2023-04-22T15:03:17.085Z,100061.78
2023-04-22T15:05:44.077Z,100059.19
2023-04-22T15:08:10.584Z,100055.09
2023-04-22T15:10:37.024Z,100053.38
2023-04-22T15:13:03.454Z,100052.88
2023-04-22T15:15:29.865Z,100051.16
2023-04-22T15:17:56.431Z,100041.81
2023-04-22T15:20:22.947Z,100038.09
2023-04-22T15:22:49.308Z,100044.41
2023-04-22T15:25:18.082Z,100042.63
2023-04-22T15:27:44.985Z,100039.91
2023-04-22T15:30:11.718Z,100035.53
2023-04-22T15:32:39.142Z,100044.28
2023-04-22T15:35:07.557Z,100041.50
2023-04-22T15:37:34.106Z,100037.03
2023-04-22T15:40:00.551Z,100035.88
2023-04-22T15:42:27.650Z,100033.34
2023-04-22T15:44:54.137Z,100029.56
2023-04-22T15:47:20.706Z,100035.53
2023-04-22T15:49:49.460Z,100033.59
2023-04-22T15:52:17.542Z,100024.41
2023-04-22T15:54:44.728Z,100026.00
2023-04-22T15:57:11.195Z,100025.97
2023-04-22T15:59:37.832Z,100026.13
2023-04-22T16:02:04.391Z,100022.00
2023-04-22T16:04:31.259Z,100024.94
2023-04-22T16:06:59.275Z,100028.00
2023-04-22T16:09:26.123Z,100028.00
2023-04-22T16:11:53.527Z,100028.81
2023-04-22T16:14:19.936Z,100024.06
2023-04-22T16:16:47.580Z,100022.84
2023-04-22T16:19:14.350Z,100020.16
2023-04-22T16:21:40.987Z,100020.28
2023-04-22T16:24:07.549Z,100023.69
2023-04-22T16:26:34.173Z,100019.56
2023-04-22T16:29:00.732Z,100023.25
2023-04-22T16:31:27.670Z,100016.00
2023-04-22T16:33:54.101Z,100019.84
2023-04-22T16:36:21.490Z,100027.38
2023-04-22T16:38:48.091Z,100020.75
2023-04-22T16:41:15.292Z,100017.41
2023-04-22T16:43:41.763Z,100018.97
2023-04-22T16:46:08.285Z,100020.50
2023-04-22T16:48:34.796Z,100019.25
2023-04-22T16:51:02.364Z,100018.78
2023-04-22T16:53:29.764Z,100018.03
2023-04-22T16:55:56.569Z,100018.56
2023-04-22T16:58:23.058Z,100021.22
2023-04-22T17:00:49.497Z,100016.09
2023-04-22T17:03:16.124Z,100018.25
2023-04-22T17:05:42.682Z,100011.34
2023-04-22T17:08:09.273Z,100010.72
2023-04-22T17:10:37.208Z,100005.47
2023-04-22T17:13:03.675Z,100013.63
2023-04-22T17:15:30.091Z,100007.31
2023-04-22T17:17:56.561Z,100003.66
2023-04-22T17:20:23.063Z,100015.38
2023-04-22T17:22:49.766Z,100013.88
2023-04-22T17:25:16.171Z,100008.16
2023-04-22T17:27:42.583Z,100008.81
2023-04-22T17:30:09.336Z,100006.97
2023-04-22T17:32:35.813Z,100011.56
2023-04-22T17:35:02.729Z,100013.00
2023-04-22T17:37:29.183Z,100009.66
2023-04-22T17:39:56.299Z,100009.22
2023-04-22T17:44:50.566Z,100007.59
2023-04-22T17:47:17.299Z,100007.88
2023-04-22T17:49:43.941Z,100007.34
2023-04-22T17:52:10.509Z,100006.84
2023-04-22T17:54:36.959Z,100014.84
2023-04-22T17:57:03.640Z,100021.44
2023-04-22T17:59:30.093Z,100014.06
2023-04-22T18:01:56.659Z,100020.91
2023-04-22T18:04:23.334Z,100027.88
2023-04-22T18:06:49.788Z,100026.66
2023-04-22T18:09:16.885Z,100027.88
2023-04-22T18:11:43.586Z,100042.84
2023-04-22T18:14:10.569Z,100054.41
2023-04-22T18:16:37.152Z,100050.44
2023-04-22T18:19:06.714Z,100059.59
2023-04-22T18:21:34.292Z,100058.94
2023-04-22T18:24:02.553Z,100055.81
2023-04-22T18:26:29.053Z,100058.47
2023-04-22T18:28:55.700Z,100057.41
2023-04-22T18:31:22.243Z,100067.31
2023-04-22T18:33:48.867Z,100084.19
2023-04-22T18:36:15.341Z,100081.31
2023-04-22T18:38:41.972Z,100087.88
2023-04-22T18:41:10.870Z,100090.41
2023-04-22T18:43:37.463Z,100088.81
2023-04-22T18:46:04.178Z,100091.91
2023-04-22T18:48:30.756Z,100100.38
2023-04-22T18:51:00.572Z,100103.47
2023-04-22T18:53:27.692Z,100107.25
2023-04-22T18:55:54.231Z,100105.63
2023-04-22T18:58:22.998Z,100117.97
2023-04-22T19:00:50.540Z,100112.16
2023-04-22T19:03:17.173Z,100117.66
2023-04-22T19:05:43.633Z,100119.28
2023-04-22T19:08:10.459Z,100124.66
2023-04-22T19:10:36.901Z,100124.78
2023-04-22T19:13:04.134Z,100127.75
2023-04-22T19:15:30.582Z,100116.84
2023-04-22T19:17:57.089Z,100124.38
2023-04-22T19:20:23.696Z,100130.28
2023-04-22T19:22:50.171Z,100126.41
2023-04-22T19:25:18.662Z,100129.81
2023-04-22T19:27:45.143Z,100129.50
2023-04-22T19:30:12.683Z,100131.28
2023-04-22T19:32:39.155Z,100130.16
2023-04-22T19:35:06.982Z,100126.13
2023-04-22T19:37:33.989Z,100119.84
2023-04-22T19:40:00.558Z,100128.28
2023-04-22T19:42:27.904Z,100119.13
2023-04-22T19:44:54.710Z,100132.88
2023-04-22T19:47:21.554Z,100131.13
2023-04-22T19:49:48.357Z,100131.44
2023-04-22T19:52:15.600Z,100129.03
2023-04-22T19:54:47.134Z,100120.00
2023-04-22T19:57:14.957Z,100118.03
2023-04-22T19:59:42.370Z,100126.63
2023-04-22T20:02:09.721Z,100126.81
2023-04-22T20:04:36.975Z,100122.31
2023-04-22T20:07:04.029Z,100123.00
2023-04-22T20:09:32.926Z,100117.38
2023-04-22T20:11:59.849Z,100122.19
2023-04-22T20:14:26.698Z,100123.69
2023-04-22T20:16:53.373Z,100126.59
2023-04-22T20:19:19.990Z,100130.84
2023-04-22T20:21:48.780Z,100126.00
2023-04-22T20:24:19.663Z,100126.13
2023-04-22T20:26:48.058Z,100125.53
2023-04-22T20:29:16.445Z,100128.16
2023-04-22T20:31:43.290Z,100128.50
2023-04-22T20:34:10.043Z,100121.38
2023-04-22T20:36:39.717Z,100128.97
2023-04-22T20:39:06.353Z,100118.72
2023-04-22T20:41:37.068Z,100119.53
2023-04-22T20:44:03.582Z,100109.53
2023-04-22T20:46:30.042Z,100112.00
2023-04-22T20:48:56.507Z,100116.53
2023-04-22T20:51:23.094Z,100112.19
2023-04-22T20:53:50.893Z,100107.34
2023-04-22T20:56:17.332Z,100115.13
2023-04-22T20:58:43.772Z,100118.81
2023-04-22T21:01:10.562Z,100117.69
2023-04-22T21:03:39.574Z,100123.69
2023-04-22T21:06:06.286Z,100125.78
2023-04-22T21:08:33.806Z,100128.72
2023-04-22T21:11:00.496Z,100135.38
2023-04-22T21:13:28.786Z,100129.19
2023-04-22T21:16:02.936Z,100127.97
2023-04-22T21:18:32.243Z,100131.03
2023-04-22T21:21:02.498Z,100142.53
2023-04-22T21:23:29.674Z,100139.63
2023-04-22T21:25:59.229Z,100139.66
2023-04-22T21:28:26.017Z,100137.91
2023-04-22T21:30:53.027Z,100138.38
2023-04-22T21:33:19.720Z,100142.88
2023-04-22T21:35:46.824Z,100139.97
2023-04-22T21:38:16.023Z,100139.00
2023-04-22T21:40:42.417Z,100145.19
2023-04-22T21:43:08.808Z,100150.03
2023-04-22T21:45:35.778Z,100153.56
2023-04-22T21:48:03.865Z,100155.00
2023-04-22T21:50:31.280Z,100156.31
2023-04-22T21:52:58.115Z,100161.97
2023-04-22T21:55:24.636Z,100160.63
2023-04-22T21:57:51.422Z,100154.72
2023-04-22T22:00:18.700Z,100166.00
2023-04-22T22:02:48.260Z,100164.06
2023-04-22T22:05:15.896Z,100159.22
2023-04-22T22:07:43.152Z,100161.66
2023-04-22T22:10:19.029Z,100161.78
2023-04-22T22:12:48.325Z,100162.09
2023-04-22T22:15:17.432Z,100168.19
2023-04-22T22:17:44.864Z,100153.19
2023-04-22T22:20:20.177Z,100165.75
2023-04-22T22:22:47.190Z,100169.44
2023-04-22T22:25:15.509Z,100165.22
2023-04-22T22:27:48.649Z,100166.00
2023-04-22T22:30:16.488Z,100165.00
2023-04-22T22:32:42.975Z,100165.50
2023-04-22T22:35:10.212Z,100167.94
2023-04-22T22:37:36.691Z,100163.91
2023-04-22T22:40:04.031Z,100167.94
2023-04-22T22:42:30.594Z,100177.25
2023-04-22T22:44:57.601Z,100162.47
2023-04-22T22:47:27.125Z,100165.22
2023-04-22T22:49:53.578Z,100166.53
2023-04-22T22:52:20.044Z,100166.63
2023-04-22T22:54:48.572Z,100156.81
2023-04-22T22:57:15.011Z,100151.81
2023-04-22T22:59:41.476Z,100158.13
2023-04-22T23:02:08.060Z,100156.72
2023-04-22T23:04:36.497Z,100162.19
2023-04-22T23:07:03.463Z,100157.03
2023-04-22T23:09:29.885Z,100158.13
2023-04-22T23:11:56.550Z,100153.59
2023-04-22T23:14:24.555Z,100152.44
2023-04-22T23:16:51.098Z,100150.84
2023-04-22T23:19:18.154Z,100153.22
2023-04-22T23:21:46.096Z,100151.78
2023-04-22T23:24:14.840Z,100154.34
2023-04-22T23:26:42.015Z,100149.34
2023-04-22T23:29:09.219Z,100153.34
2023-04-22T23:31:35.990Z,100153.56
2023-04-22T23:34:05.010Z,100159.03
2023-04-22T23:36:33.602Z,100151.91
2023-04-22T23:39:00.696Z,100152.38
2023-04-22T23:41:27.672Z,100163.44
2023-04-22T23:43:54.173Z,100160.06
2023-04-22T23:46:20.655Z,100149.78
2023-04-22T23:48:47.246Z,100151.84
2023-04-22T23:51:16.696Z,100144.31
2023-04-22T23:53:44.122Z,100148.31
2023-04-22T23:56:11.853Z,100151.19
2023-04-22T23:58:38.776Z,100141.25
